Pays
Station

 

Conditions  météo  pour  Ho Chi Minh  -  Viet Nam    Viet Nam

  
33 °C
    
 
 

METAR pour Ho Chi Minh :

VVTS 230630Z 19007KT 140V220 9999 BKN017 33/24 Q1008 NOSIG

 

Voici le bulletin pour Ho Chi Minh - Viet Nam.
 
Le bulletin a été fait il y a 24 minutes, à 06:30 UTC .
Le vent soufflait à la vitesse de 3.6 mètres par seconde de Sud (190°), variant entre Sud-est (140°) et Sud-ouest (220°).
 
La température était de 33 °C, avec un point de rosée à 24 °C.
La température ressentie était de 39 °C.
 
La pression atmosphérique était de 1008 hPa.
L'humidité relative était de 59.3%.
 
Il y avait 5 à 7/8ème de nébulosité à une hauteur de 518 mètres.
 
La visibilité globale était de supérieure à 10 kilomètres.
 

 
 
 

Pays :   A   B   C   D   E   F   G   H   I   J   K   L   M   N   O   P   Q   R   S   T   U   V   W   Y   Z

 

Partenaires :  Info Météo avec Met'info
Météo Marine avec MeteoMarine.net
Infos Site  |  Infos Légales  |  Crédits  |  Confidentialité
Contactez-nous  |  Ajouter aux favoris
© 2013-2019 METAR - Tous droits réservés